﻿<?xml version="1.0" encoding="UTF-8" standalone="no" ?>
<gpx xmlns="http://www.topografix.com/GPX/1/1" creator="CompeGPS" version="1.1" xmlns:xsi="http://www.w3.org/2001/XMLSchema-instance" xsi:schemaLocation="http://www.topografix.com/GPX/1/1 http://www.topografix.com/GPX/1/1/gpx.xsd http://www.garmin.com/xmlschemas/GpxExtensions/v3 http://www.garmin.com/xmlschemas/GpxExtensionsv3.xsd http://www.garmin.com/xmlschemas/TrackPointExtension/v1 http://www.garmin.com/xmlschemas/TrackPointExtensionv1.xsd" xmlns:gpxtpx="http://www.garmin.com/xmlschemas/TrackPointExtension/v1">
  <wpt lat="39.887035" lon="-5.686188">
    <ele>268.7</ele>
    <time>2016-11-11T19:24:20Z</time>
    <name>Panel inicio</name>
    <desc></desc>
    <sym></sym>
  </wpt>
  <wpt lat="39.877748" lon="-5.745677">
    <ele>257.3</ele>
    <time>2016-12-27T17:24:03Z</time>
    <name>Panel - Atril interpretativos</name>
    <desc></desc>
    <sym></sym>
  </wpt>
  <wpt lat="39.876033" lon="-5.743622">
    <ele>257.0</ele>
    <time>2019-05-21T00:28:55Z</time>
    <name>Charco Salado</name>
    <desc></desc>
    <sym></sym>
  </wpt>
  <wpt lat="39.897517" lon="-5.779555">
    <ele>258.8</ele>
    <time>2019-05-21T00:29:20Z</time>
    <name>Toril</name>
    <desc></desc>
    <sym></sym>
  </wpt>
  <wpt lat="39.887558" lon="-5.695297">
    <ele>275.6</ele>
    <time>2019-05-21T00:29:42Z</time>
    <name>Ermita</name>
    <desc></desc>
    <sym></sym>
  </wpt>
  <trk>
    <name>PR-CC 68</name>
    <desc>PR-CC 68</desc>
    <trkseg>
      <trkpt lat="39.887036" lon="-5.686159">
        <ele>268.6</ele>
        <time>2019-05-20T06:50:10Z</time>
      </trkpt>
      <trkpt lat="39.887180" lon="-5.686270">
        <ele>268.9</ele>
        <time>2019-05-20T06:50:26Z</time>
      </trkpt>
      <trkpt lat="39.887340" lon="-5.686960">
        <ele>267.3</ele>
        <time>2019-05-20T06:51:22Z</time>
      </trkpt>
      <trkpt lat="39.887379" lon="-5.687669">
        <ele>266.8</ele>
        <time>2019-05-20T06:52:16Z</time>
      </trkpt>
      <trkpt lat="39.887363" lon="-5.688566">
        <ele>265.6</ele>
        <time>2019-05-20T06:53:25Z</time>
      </trkpt>
      <trkpt lat="39.887320" lon="-5.689075">
        <ele>266.0</ele>
        <time>2019-05-20T06:54:04Z</time>
      </trkpt>
      <trkpt lat="39.887538" lon="-5.690350">
        <ele>267.1</ele>
        <time>2019-05-20T06:55:45Z</time>
      </trkpt>
      <trkpt lat="39.887710" lon="-5.691710">
        <ele>269.0</ele>
        <time>2019-05-20T06:57:31Z</time>
      </trkpt>
      <trkpt lat="39.887741" lon="-5.693039">
        <ele>269.7</ele>
        <time>2019-05-20T06:59:13Z</time>
      </trkpt>
      <trkpt lat="39.887678" lon="-5.694963">
        <ele>273.4</ele>
        <time>2019-05-20T07:01:40Z</time>
      </trkpt>
      <trkpt lat="39.887757" lon="-5.696217">
        <ele>272.0</ele>
        <time>2019-05-20T07:03:17Z</time>
      </trkpt>
      <trkpt lat="39.887831" lon="-5.696895">
        <ele>271.0</ele>
        <time>2019-05-20T07:04:10Z</time>
      </trkpt>
      <trkpt lat="39.888061" lon="-5.697585">
        <ele>269.8</ele>
        <time>2019-05-20T07:05:07Z</time>
      </trkpt>
      <trkpt lat="39.888429" lon="-5.698316">
        <ele>269.0</ele>
        <time>2019-05-20T07:06:15Z</time>
      </trkpt>
      <trkpt lat="39.888820" lon="-5.699140">
        <ele>271.0</ele>
        <time>2019-05-20T07:07:29Z</time>
      </trkpt>
      <trkpt lat="39.889327" lon="-5.700372">
        <ele>269.0</ele>
        <time>2019-05-20T07:09:16Z</time>
      </trkpt>
      <trkpt lat="39.889492" lon="-5.702001">
        <ele>271.0</ele>
        <time>2019-05-20T07:11:22Z</time>
      </trkpt>
      <trkpt lat="39.889751" lon="-5.704397">
        <ele>273.7</ele>
        <time>2019-05-20T07:14:28Z</time>
      </trkpt>
      <trkpt lat="39.890312" lon="-5.706503">
        <ele>276.0</ele>
        <time>2019-05-20T07:17:19Z</time>
      </trkpt>
      <trkpt lat="39.890720" lon="-5.707940">
        <ele>277.0</ele>
        <time>2019-05-20T07:19:17Z</time>
      </trkpt>
      <trkpt lat="39.890920" lon="-5.708725">
        <ele>275.0</ele>
        <time>2019-05-20T07:20:21Z</time>
      </trkpt>
      <trkpt lat="39.890981" lon="-5.709111">
        <ele>273.2</ele>
        <time>2019-05-20T07:20:51Z</time>
      </trkpt>
      <trkpt lat="39.890949" lon="-5.710016">
        <ele>272.0</ele>
        <time>2019-05-20T07:22:00Z</time>
      </trkpt>
      <trkpt lat="39.890996" lon="-5.710097">
        <ele>272.0</ele>
        <time>2019-05-20T07:22:08Z</time>
      </trkpt>
      <trkpt lat="39.891207" lon="-5.710245">
        <ele>272.0</ele>
        <time>2019-05-20T07:22:32Z</time>
      </trkpt>
      <trkpt lat="39.891584" lon="-5.710564">
        <ele>273.5</ele>
        <time>2019-05-20T07:23:17Z</time>
      </trkpt>
      <trkpt lat="39.891736" lon="-5.710620">
        <ele>274.0</ele>
        <time>2019-05-20T07:23:33Z</time>
      </trkpt>
      <trkpt lat="39.892128" lon="-5.711179">
        <ele>275.0</ele>
        <time>2019-05-20T07:24:31Z</time>
      </trkpt>
      <trkpt lat="39.892350" lon="-5.711726">
        <ele>275.0</ele>
        <time>2019-05-20T07:25:19Z</time>
      </trkpt>
      <trkpt lat="39.892910" lon="-5.713306">
        <ele>276.0</ele>
        <time>2019-05-20T07:27:32Z</time>
      </trkpt>
      <trkpt lat="39.893863" lon="-5.715393">
        <ele>275.0</ele>
        <time>2019-05-20T07:30:39Z</time>
      </trkpt>
      <trkpt lat="39.894496" lon="-5.717208">
        <ele>274.1</ele>
        <time>2019-05-20T07:33:12Z</time>
      </trkpt>
      <trkpt lat="39.894912" lon="-5.718499">
        <ele>272.0</ele>
        <time>2019-05-20T07:34:59Z</time>
      </trkpt>
      <trkpt lat="39.895407" lon="-5.720132">
        <ele>273.1</ele>
        <time>2019-05-20T07:37:14Z</time>
      </trkpt>
      <trkpt lat="39.896070" lon="-5.720980">
        <ele>272.0</ele>
        <time>2019-05-20T07:38:47Z</time>
      </trkpt>
      <trkpt lat="39.896790" lon="-5.721860">
        <ele>271.0</ele>
        <time>2019-05-20T07:40:26Z</time>
      </trkpt>
      <trkpt lat="39.897320" lon="-5.722590">
        <ele>269.0</ele>
        <time>2019-05-20T07:41:43Z</time>
      </trkpt>
      <trkpt lat="39.897740" lon="-5.723280">
        <ele>268.0</ele>
        <time>2019-05-20T07:42:50Z</time>
      </trkpt>
      <trkpt lat="39.897954" lon="-5.723751">
        <ele>268.0</ele>
        <time>2019-05-20T07:43:32Z</time>
      </trkpt>
      <trkpt lat="39.898286" lon="-5.724404">
        <ele>266.5</ele>
        <time>2019-05-20T07:44:33Z</time>
      </trkpt>
      <trkpt lat="39.898530" lon="-5.725070">
        <ele>265.0</ele>
        <time>2019-05-20T07:45:29Z</time>
      </trkpt>
      <trkpt lat="39.898692" lon="-5.726306">
        <ele>267.8</ele>
        <time>2019-05-20T07:47:06Z</time>
      </trkpt>
      <trkpt lat="39.898846" lon="-5.727198">
        <ele>270.0</ele>
        <time>2019-05-20T07:48:16Z</time>
      </trkpt>
      <trkpt lat="39.898870" lon="-5.727538">
        <ele>269.0</ele>
        <time>2019-05-20T07:48:42Z</time>
      </trkpt>
      <trkpt lat="39.898781" lon="-5.728073">
        <ele>268.0</ele>
        <time>2019-05-20T07:49:24Z</time>
      </trkpt>
      <trkpt lat="39.898451" lon="-5.728884">
        <ele>268.5</ele>
        <time>2019-05-20T07:50:35Z</time>
      </trkpt>
      <trkpt lat="39.898136" lon="-5.729723">
        <ele>269.0</ele>
        <time>2019-05-20T07:51:46Z</time>
      </trkpt>
      <trkpt lat="39.898107" lon="-5.731046">
        <ele>267.0</ele>
        <time>2019-05-20T07:53:28Z</time>
      </trkpt>
      <trkpt lat="39.898085" lon="-5.732949">
        <ele>269.0</ele>
        <time>2019-05-20T07:55:54Z</time>
      </trkpt>
      <trkpt lat="39.898124" lon="-5.733403">
        <ele>271.0</ele>
        <time>2019-05-20T07:56:29Z</time>
      </trkpt>
      <trkpt lat="39.898371" lon="-5.734191">
        <ele>270.0</ele>
        <time>2019-05-20T07:57:34Z</time>
      </trkpt>
      <trkpt lat="39.898713" lon="-5.735333">
        <ele>269.0</ele>
        <time>2019-05-20T07:59:08Z</time>
      </trkpt>
      <trkpt lat="39.898909" lon="-5.736022">
        <ele>269.0</ele>
        <time>2019-05-20T08:00:05Z</time>
      </trkpt>
      <trkpt lat="39.899441" lon="-5.737309">
        <ele>271.0</ele>
        <time>2019-05-20T08:01:57Z</time>
      </trkpt>
      <trkpt lat="39.900286" lon="-5.738908">
        <ele>270.0</ele>
        <time>2019-05-20T08:04:26Z</time>
      </trkpt>
      <trkpt lat="39.900487" lon="-5.740304">
        <ele>270.0</ele>
        <time>2019-05-20T08:06:15Z</time>
      </trkpt>
      <trkpt lat="39.900510" lon="-5.741837">
        <ele>270.0</ele>
        <time>2019-05-20T08:08:13Z</time>
      </trkpt>
      <trkpt lat="39.900483" lon="-5.743617">
        <ele>271.4</ele>
        <time>2019-05-20T08:10:30Z</time>
      </trkpt>
      <trkpt lat="39.899914" lon="-5.744928">
        <ele>270.0</ele>
        <time>2019-05-20T08:12:25Z</time>
      </trkpt>
      <trkpt lat="39.898548" lon="-5.746873">
        <ele>268.0</ele>
        <time>2019-05-20T08:15:48Z</time>
      </trkpt>
      <trkpt lat="39.897883" lon="-5.747785">
        <ele>268.0</ele>
        <time>2019-05-20T08:17:24Z</time>
      </trkpt>
      <trkpt lat="39.897210" lon="-5.749110">
        <ele>266.0</ele>
        <time>2019-05-20T08:19:26Z</time>
      </trkpt>
      <trkpt lat="39.896688" lon="-5.750109">
        <ele>267.0</ele>
        <time>2019-05-20T08:20:59Z</time>
      </trkpt>
      <trkpt lat="39.895926" lon="-5.751271">
        <ele>265.4</ele>
        <time>2019-05-20T08:22:56Z</time>
      </trkpt>
      <trkpt lat="39.895568" lon="-5.752692">
        <ele>267.0</ele>
        <time>2019-05-20T08:24:51Z</time>
      </trkpt>
      <trkpt lat="39.895488" lon="-5.753616">
        <ele>267.0</ele>
        <time>2019-05-20T08:26:02Z</time>
      </trkpt>
      <trkpt lat="39.895732" lon="-5.756421">
        <ele>265.0</ele>
        <time>2019-05-20T08:29:39Z</time>
      </trkpt>
      <trkpt lat="39.895713" lon="-5.757879">
        <ele>264.0</ele>
        <time>2019-05-20T08:31:31Z</time>
      </trkpt>
      <trkpt lat="39.895715" lon="-5.759379">
        <ele>265.0</ele>
        <time>2019-05-20T08:33:26Z</time>
      </trkpt>
      <trkpt lat="39.895970" lon="-5.761500">
        <ele>266.0</ele>
        <time>2019-05-20T08:36:11Z</time>
      </trkpt>
      <trkpt lat="39.896199" lon="-5.762907">
        <ele>264.0</ele>
        <time>2019-05-20T08:38:01Z</time>
      </trkpt>
      <trkpt lat="39.896303" lon="-5.764022">
        <ele>260.0</ele>
        <time>2019-05-20T08:39:28Z</time>
      </trkpt>
      <trkpt lat="39.896408" lon="-5.764997">
        <ele>258.0</ele>
        <time>2019-05-20T08:40:43Z</time>
      </trkpt>
      <trkpt lat="39.896452" lon="-5.765502">
        <ele>256.0</ele>
        <time>2019-05-20T08:41:22Z</time>
      </trkpt>
      <trkpt lat="39.896479" lon="-5.766076">
        <ele>252.9</ele>
        <time>2019-05-20T08:42:07Z</time>
      </trkpt>
      <trkpt lat="39.896542" lon="-5.766666">
        <ele>252.0</ele>
        <time>2019-05-20T08:42:52Z</time>
      </trkpt>
      <trkpt lat="39.896746" lon="-5.767923">
        <ele>253.0</ele>
        <time>2019-05-20T08:44:31Z</time>
      </trkpt>
      <trkpt lat="39.896831" lon="-5.770005">
        <ele>252.0</ele>
        <time>2019-05-20T08:47:11Z</time>
      </trkpt>
      <trkpt lat="39.896879" lon="-5.771948">
        <ele>254.1</ele>
        <time>2019-05-20T08:49:40Z</time>
      </trkpt>
      <trkpt lat="39.896961" lon="-5.772776">
        <ele>256.0</ele>
        <time>2019-05-20T08:50:44Z</time>
      </trkpt>
      <trkpt lat="39.897420" lon="-5.774450">
        <ele>259.6</ele>
        <time>2019-05-20T08:53:01Z</time>
      </trkpt>
      <trkpt lat="39.897610" lon="-5.775454">
        <ele>262.2</ele>
        <time>2019-05-20T08:54:20Z</time>
      </trkpt>
      <trkpt lat="39.897741" lon="-5.776138">
        <ele>263.0</ele>
        <time>2019-05-20T08:55:14Z</time>
      </trkpt>
      <trkpt lat="39.897793" lon="-5.776403">
        <ele>264.0</ele>
        <time>2019-05-20T08:55:35Z</time>
      </trkpt>
      <trkpt lat="39.897853" lon="-5.777259">
        <ele>264.0</ele>
        <time>2019-05-20T08:56:41Z</time>
      </trkpt>
      <trkpt lat="39.897730" lon="-5.778140">
        <ele>261.0</ele>
        <time>2019-05-20T08:57:50Z</time>
      </trkpt>
      <trkpt lat="39.897430" lon="-5.779140">
        <ele>259.6</ele>
        <time>2019-05-20T08:59:13Z</time>
      </trkpt>
      <trkpt lat="39.897360" lon="-5.779530">
        <ele>258.9</ele>
        <time>2019-05-20T08:59:43Z</time>
      </trkpt>
      <trkpt lat="39.897253" lon="-5.780311">
        <ele>256.6</ele>
        <time>2019-05-20T09:00:44Z</time>
      </trkpt>
      <trkpt lat="39.897213" lon="-5.780479">
        <ele>256.0</ele>
        <time>2019-05-20T09:00:58Z</time>
      </trkpt>
      <trkpt lat="39.897130" lon="-5.780480">
        <ele>256.0</ele>
        <time>2019-05-20T09:01:06Z</time>
      </trkpt>
      <trkpt lat="39.897130" lon="-5.780480">
        <ele>256.0</ele>
        <time>2019-05-20T09:01:06Z</time>
      </trkpt>
      <trkpt lat="39.896860" lon="-5.780180">
        <ele>259.0</ele>
        <time>2019-05-20T09:01:42Z</time>
      </trkpt>
      <trkpt lat="39.896270" lon="-5.779660">
        <ele>256.5</ele>
        <time>2019-05-20T09:02:53Z</time>
      </trkpt>
      <trkpt lat="39.895280" lon="-5.778930">
        <ele>256.0</ele>
        <time>2019-05-20T09:04:47Z</time>
      </trkpt>
      <trkpt lat="39.894680" lon="-5.778600">
        <ele>259.0</ele>
        <time>2019-05-20T09:05:52Z</time>
      </trkpt>
      <trkpt lat="39.893500" lon="-5.778340">
        <ele>257.0</ele>
        <time>2019-05-20T09:07:52Z</time>
      </trkpt>
      <trkpt lat="39.892277" lon="-5.778034">
        <ele>255.0</ele>
        <time>2019-05-20T09:09:56Z</time>
      </trkpt>
      <trkpt lat="39.891560" lon="-5.777250">
        <ele>253.0</ele>
        <time>2019-05-20T09:11:30Z</time>
      </trkpt>
      <trkpt lat="39.890907" lon="-5.777020">
        <ele>252.5</ele>
        <time>2019-05-20T09:12:38Z</time>
      </trkpt>
      <trkpt lat="39.890580" lon="-5.776840">
        <ele>250.8</ele>
        <time>2019-05-20T09:13:13Z</time>
      </trkpt>
      <trkpt lat="39.890360" lon="-5.776830">
        <ele>249.0</ele>
        <time>2019-05-20T09:13:35Z</time>
      </trkpt>
      <trkpt lat="39.889840" lon="-5.777000">
        <ele>247.0</ele>
        <time>2019-05-20T09:14:29Z</time>
      </trkpt>
      <trkpt lat="39.889269" lon="-5.777161">
        <ele>247.0</ele>
        <time>2019-05-20T09:15:27Z</time>
      </trkpt>
      <trkpt lat="39.888970" lon="-5.777190">
        <ele>246.5</ele>
        <time>2019-05-20T09:15:57Z</time>
      </trkpt>
      <trkpt lat="39.888970" lon="-5.777190">
        <ele>246.5</ele>
        <time>2019-05-20T09:15:57Z</time>
      </trkpt>
      <trkpt lat="39.888530" lon="-5.777150">
        <ele>248.0</ele>
        <time>2019-05-20T09:16:42Z</time>
      </trkpt>
      <trkpt lat="39.888040" lon="-5.777070">
        <ele>248.0</ele>
        <time>2019-05-20T09:17:31Z</time>
      </trkpt>
      <trkpt lat="39.886720" lon="-5.776820">
        <ele>248.0</ele>
        <time>2019-05-20T09:19:44Z</time>
      </trkpt>
      <trkpt lat="39.885256" lon="-5.776593">
        <ele>248.0</ele>
        <time>2019-05-20T09:22:12Z</time>
      </trkpt>
      <trkpt lat="39.883253" lon="-5.776357">
        <ele>247.8</ele>
        <time>2019-05-20T09:25:33Z</time>
      </trkpt>
      <trkpt lat="39.882300" lon="-5.776420">
        <ele>249.0</ele>
        <time>2019-05-20T09:27:09Z</time>
      </trkpt>
      <trkpt lat="39.880520" lon="-5.776630">
        <ele>251.0</ele>
        <time>2019-05-20T09:30:08Z</time>
      </trkpt>
      <trkpt lat="39.879849" lon="-5.776658">
        <ele>251.0</ele>
        <time>2019-05-20T09:31:15Z</time>
      </trkpt>
      <trkpt lat="39.879140" lon="-5.776670">
        <ele>252.0</ele>
        <time>2019-05-20T09:32:26Z</time>
      </trkpt>
      <trkpt lat="39.878751" lon="-5.776649">
        <ele>252.0</ele>
        <time>2019-05-20T09:33:05Z</time>
      </trkpt>
      <trkpt lat="39.878360" lon="-5.776730">
        <ele>253.0</ele>
        <time>2019-05-20T09:33:44Z</time>
      </trkpt>
      <trkpt lat="39.878020" lon="-5.776820">
        <ele>253.0</ele>
        <time>2019-05-20T09:34:19Z</time>
      </trkpt>
      <trkpt lat="39.877150" lon="-5.777180">
        <ele>253.0</ele>
        <time>2019-05-20T09:35:50Z</time>
      </trkpt>
      <trkpt lat="39.876551" lon="-5.777484">
        <ele>253.0</ele>
        <time>2019-05-20T09:36:55Z</time>
      </trkpt>
      <trkpt lat="39.875813" lon="-5.778015">
        <ele>255.2</ele>
        <time>2019-05-20T09:38:19Z</time>
      </trkpt>
      <trkpt lat="39.875342" lon="-5.778405">
        <ele>256.8</ele>
        <time>2019-05-20T09:39:15Z</time>
      </trkpt>
      <trkpt lat="39.875217" lon="-5.778348">
        <ele>257.8</ele>
        <time>2019-05-20T09:39:28Z</time>
      </trkpt>
      <trkpt lat="39.875174" lon="-5.778182">
        <ele>258.0</ele>
        <time>2019-05-20T09:39:42Z</time>
      </trkpt>
      <trkpt lat="39.875320" lon="-5.776740">
        <ele>256.8</ele>
        <time>2019-05-20T09:41:33Z</time>
      </trkpt>
      <trkpt lat="39.875368" lon="-5.775995">
        <ele>255.0</ele>
        <time>2019-05-20T09:42:31Z</time>
      </trkpt>
      <trkpt lat="39.875487" lon="-5.774427">
        <ele>251.0</ele>
        <time>2019-05-20T09:44:32Z</time>
      </trkpt>
      <trkpt lat="39.875662" lon="-5.774049">
        <ele>250.0</ele>
        <time>2019-05-20T09:45:06Z</time>
      </trkpt>
      <trkpt lat="39.876108" lon="-5.773499">
        <ele>252.0</ele>
        <time>2019-05-20T09:46:07Z</time>
      </trkpt>
      <trkpt lat="39.876380" lon="-5.773060">
        <ele>254.4</ele>
        <time>2019-05-20T09:46:50Z</time>
      </trkpt>
      <trkpt lat="39.876518" lon="-5.772721">
        <ele>256.0</ele>
        <time>2019-05-20T09:47:20Z</time>
      </trkpt>
      <trkpt lat="39.876724" lon="-5.770911">
        <ele>256.0</ele>
        <time>2019-05-20T09:49:40Z</time>
      </trkpt>
      <trkpt lat="39.876694" lon="-5.769700">
        <ele>256.0</ele>
        <time>2019-05-20T09:51:14Z</time>
      </trkpt>
      <trkpt lat="39.876378" lon="-5.768781">
        <ele>255.5</ele>
        <time>2019-05-20T09:52:31Z</time>
      </trkpt>
      <trkpt lat="39.875174" lon="-5.766406">
        <ele>255.0</ele>
        <time>2019-05-20T09:56:09Z</time>
      </trkpt>
      <trkpt lat="39.874120" lon="-5.764120">
        <ele>255.0</ele>
        <time>2019-05-20T09:59:34Z</time>
      </trkpt>
      <trkpt lat="39.873570" lon="-5.762850">
        <ele>254.0</ele>
        <time>2019-05-20T10:01:26Z</time>
      </trkpt>
      <trkpt lat="39.873252" lon="-5.762190">
        <ele>256.0</ele>
        <time>2019-05-20T10:02:26Z</time>
      </trkpt>
      <trkpt lat="39.873255" lon="-5.761880">
        <ele>256.0</ele>
        <time>2019-05-20T10:02:50Z</time>
      </trkpt>
      <trkpt lat="39.874275" lon="-5.760653">
        <ele>254.0</ele>
        <time>2019-05-20T10:05:09Z</time>
      </trkpt>
      <trkpt lat="39.875301" lon="-5.759566">
        <ele>252.0</ele>
        <time>2019-05-20T10:07:21Z</time>
      </trkpt>
      <trkpt lat="39.875645" lon="-5.759305">
        <ele>249.4</ele>
        <time>2019-05-20T10:08:01Z</time>
      </trkpt>
      <trkpt lat="39.875769" lon="-5.759006">
        <ele>251.0</ele>
        <time>2019-05-20T10:08:27Z</time>
      </trkpt>
      <trkpt lat="39.875811" lon="-5.758002">
        <ele>253.0</ele>
        <time>2019-05-20T10:09:44Z</time>
      </trkpt>
      <trkpt lat="39.875990" lon="-5.756950">
        <ele>254.0</ele>
        <time>2019-05-20T10:11:07Z</time>
      </trkpt>
      <trkpt lat="39.875920" lon="-5.756089">
        <ele>254.0</ele>
        <time>2019-05-20T10:12:14Z</time>
      </trkpt>
      <trkpt lat="39.875732" lon="-5.755286">
        <ele>254.0</ele>
        <time>2019-05-20T10:13:18Z</time>
      </trkpt>
      <trkpt lat="39.875353" lon="-5.754359">
        <ele>255.0</ele>
        <time>2019-05-20T10:14:39Z</time>
      </trkpt>
      <trkpt lat="39.875128" lon="-5.753567">
        <ele>256.0</ele>
        <time>2019-05-20T10:15:43Z</time>
      </trkpt>
      <trkpt lat="39.875106" lon="-5.752788">
        <ele>259.0</ele>
        <time>2019-05-20T10:16:43Z</time>
      </trkpt>
      <trkpt lat="39.875124" lon="-5.751836">
        <ele>263.0</ele>
        <time>2019-05-20T10:17:57Z</time>
      </trkpt>
      <trkpt lat="39.875242" lon="-5.751040">
        <ele>262.0</ele>
        <time>2019-05-20T10:18:59Z</time>
      </trkpt>
      <trkpt lat="39.875410" lon="-5.750610">
        <ele>261.0</ele>
        <time>2019-05-20T10:19:36Z</time>
      </trkpt>
      <trkpt lat="39.876120" lon="-5.749520">
        <ele>259.0</ele>
        <time>2019-05-20T10:21:26Z</time>
      </trkpt>
      <trkpt lat="39.876270" lon="-5.749130">
        <ele>260.7</ele>
        <time>2019-05-20T10:21:59Z</time>
      </trkpt>
      <trkpt lat="39.876320" lon="-5.748740">
        <ele>261.5</ele>
        <time>2019-05-20T10:22:30Z</time>
      </trkpt>
      <trkpt lat="39.876307" lon="-5.748586">
        <ele>261.0</ele>
        <time>2019-05-20T10:22:41Z</time>
      </trkpt>
      <trkpt lat="39.876356" lon="-5.748527">
        <ele>261.0</ele>
        <time>2019-05-20T10:22:48Z</time>
      </trkpt>
      <trkpt lat="39.876443" lon="-5.747975">
        <ele>259.5</ele>
        <time>2019-05-20T10:23:31Z</time>
      </trkpt>
      <trkpt lat="39.876589" lon="-5.747537">
        <ele>258.0</ele>
        <time>2019-05-20T10:24:08Z</time>
      </trkpt>
      <trkpt lat="39.876604" lon="-5.747090">
        <ele>258.6</ele>
        <time>2019-05-20T10:24:42Z</time>
      </trkpt>
      <trkpt lat="39.876836" lon="-5.746822">
        <ele>260.2</ele>
        <time>2019-05-20T10:25:13Z</time>
      </trkpt>
      <trkpt lat="39.877296" lon="-5.746486">
        <ele>259.2</ele>
        <time>2019-05-20T10:26:06Z</time>
      </trkpt>
      <trkpt lat="39.877464" lon="-5.746247">
        <ele>257.2</ele>
        <time>2019-05-20T10:26:31Z</time>
      </trkpt>
      <trkpt lat="39.877590" lon="-5.746120">
        <ele>253.2</ele>
        <time>2019-05-20T10:26:48Z</time>
      </trkpt>
      <trkpt lat="39.877870" lon="-5.745630">
        <ele>260.1</ele>
        <time>2019-05-20T10:27:35Z</time>
      </trkpt>
      <trkpt lat="39.877980" lon="-5.745440">
        <ele>262.7</ele>
        <time>2019-05-20T10:27:53Z</time>
      </trkpt>
      <trkpt lat="39.877822" lon="-5.744841">
        <ele>267.2</ele>
        <time>2019-05-20T10:28:42Z</time>
      </trkpt>
      <trkpt lat="39.877932" lon="-5.744264">
        <ele>269.0</ele>
        <time>2019-05-20T10:29:28Z</time>
      </trkpt>
      <trkpt lat="39.877899" lon="-5.743836">
        <ele>268.0</ele>
        <time>2019-05-20T10:30:01Z</time>
      </trkpt>
      <trkpt lat="39.877970" lon="-5.743228">
        <ele>268.0</ele>
        <time>2019-05-20T10:30:48Z</time>
      </trkpt>
      <trkpt lat="39.878169" lon="-5.742707">
        <ele>266.0</ele>
        <time>2019-05-20T10:31:33Z</time>
      </trkpt>
      <trkpt lat="39.878303" lon="-5.742007">
        <ele>265.0</ele>
        <time>2019-05-20T10:32:28Z</time>
      </trkpt>
      <trkpt lat="39.878439" lon="-5.741504">
        <ele>264.0</ele>
        <time>2019-05-20T10:33:09Z</time>
      </trkpt>
      <trkpt lat="39.878437" lon="-5.741007">
        <ele>264.0</ele>
        <time>2019-05-20T10:33:47Z</time>
      </trkpt>
      <trkpt lat="39.878626" lon="-5.740711">
        <ele>264.0</ele>
        <time>2019-05-20T10:34:17Z</time>
      </trkpt>
      <trkpt lat="39.878896" lon="-5.740187">
        <ele>265.2</ele>
        <time>2019-05-20T10:35:05Z</time>
      </trkpt>
      <trkpt lat="39.879198" lon="-5.739781">
        <ele>267.0</ele>
        <time>2019-05-20T10:35:49Z</time>
      </trkpt>
      <trkpt lat="39.879344" lon="-5.739515">
        <ele>267.0</ele>
        <time>2019-05-20T10:36:14Z</time>
      </trkpt>
      <trkpt lat="39.879459" lon="-5.739233">
        <ele>266.0</ele>
        <time>2019-05-20T10:36:38Z</time>
      </trkpt>
      <trkpt lat="39.879589" lon="-5.738873">
        <ele>266.0</ele>
        <time>2019-05-20T10:37:09Z</time>
      </trkpt>
      <trkpt lat="39.879720" lon="-5.738638">
        <ele>266.1</ele>
        <time>2019-05-20T10:37:31Z</time>
      </trkpt>
      <trkpt lat="39.879850" lon="-5.738470">
        <ele>267.0</ele>
        <time>2019-05-20T10:37:50Z</time>
      </trkpt>
      <trkpt lat="39.880108" lon="-5.737595">
        <ele>266.0</ele>
        <time>2019-05-20T10:39:02Z</time>
      </trkpt>
      <trkpt lat="39.880300" lon="-5.736740">
        <ele>266.0</ele>
        <time>2019-05-20T10:40:10Z</time>
      </trkpt>
      <trkpt lat="39.880580" lon="-5.735390">
        <ele>267.0</ele>
        <time>2019-05-20T10:41:57Z</time>
      </trkpt>
      <trkpt lat="39.880717" lon="-5.734305">
        <ele>268.0</ele>
        <time>2019-05-20T10:43:22Z</time>
      </trkpt>
      <trkpt lat="39.880940" lon="-5.733790">
        <ele>269.0</ele>
        <time>2019-05-20T10:44:07Z</time>
      </trkpt>
      <trkpt lat="39.881462" lon="-5.732978">
        <ele>270.0</ele>
        <time>2019-05-20T10:45:29Z</time>
      </trkpt>
      <trkpt lat="39.881669" lon="-5.732603">
        <ele>270.0</ele>
        <time>2019-05-20T10:46:04Z</time>
      </trkpt>
      <trkpt lat="39.881870" lon="-5.732050">
        <ele>270.0</ele>
        <time>2019-05-20T10:46:51Z</time>
      </trkpt>
      <trkpt lat="39.881890" lon="-5.730820">
        <ele>272.0</ele>
        <time>2019-05-20T10:48:25Z</time>
      </trkpt>
      <trkpt lat="39.881895" lon="-5.730382">
        <ele>273.0</ele>
        <time>2019-05-20T10:48:59Z</time>
      </trkpt>
      <trkpt lat="39.882101" lon="-5.729852">
        <ele>272.0</ele>
        <time>2019-05-20T10:49:45Z</time>
      </trkpt>
      <trkpt lat="39.882165" lon="-5.729443">
        <ele>272.0</ele>
        <time>2019-05-20T10:50:17Z</time>
      </trkpt>
      <trkpt lat="39.882129" lon="-5.729020">
        <ele>272.0</ele>
        <time>2019-05-20T10:50:49Z</time>
      </trkpt>
      <trkpt lat="39.882199" lon="-5.728184">
        <ele>272.0</ele>
        <time>2019-05-20T10:51:54Z</time>
      </trkpt>
      <trkpt lat="39.882207" lon="-5.726676">
        <ele>274.0</ele>
        <time>2019-05-20T10:53:50Z</time>
      </trkpt>
      <trkpt lat="39.882413" lon="-5.725395">
        <ele>274.0</ele>
        <time>2019-05-20T10:55:30Z</time>
      </trkpt>
      <trkpt lat="39.882434" lon="-5.724966">
        <ele>274.0</ele>
        <time>2019-05-20T10:56:03Z</time>
      </trkpt>
      <trkpt lat="39.882500" lon="-5.724590">
        <ele>274.0</ele>
        <time>2019-05-20T10:56:33Z</time>
      </trkpt>
      <trkpt lat="39.882540" lon="-5.723649">
        <ele>274.6</ele>
        <time>2019-05-20T10:57:45Z</time>
      </trkpt>
      <trkpt lat="39.882441" lon="-5.722768">
        <ele>274.0</ele>
        <time>2019-05-20T10:58:54Z</time>
      </trkpt>
      <trkpt lat="39.882149" lon="-5.721307">
        <ele>273.0</ele>
        <time>2019-05-20T11:00:50Z</time>
      </trkpt>
      <trkpt lat="39.881897" lon="-5.720215">
        <ele>273.0</ele>
        <time>2019-05-20T11:02:17Z</time>
      </trkpt>
      <trkpt lat="39.881840" lon="-5.719494">
        <ele>275.0</ele>
        <time>2019-05-20T11:03:13Z</time>
      </trkpt>
      <trkpt lat="39.881840" lon="-5.719140">
        <ele>275.0</ele>
        <time>2019-05-20T11:03:40Z</time>
      </trkpt>
      <trkpt lat="39.881706" lon="-5.717407">
        <ele>275.0</ele>
        <time>2019-05-20T11:05:54Z</time>
      </trkpt>
      <trkpt lat="39.881502" lon="-5.716314">
        <ele>276.0</ele>
        <time>2019-05-20T11:07:20Z</time>
      </trkpt>
      <trkpt lat="39.881458" lon="-5.715222">
        <ele>274.4</ele>
        <time>2019-05-20T11:08:44Z</time>
      </trkpt>
      <trkpt lat="39.881338" lon="-5.714373">
        <ele>274.0</ele>
        <time>2019-05-20T11:09:50Z</time>
      </trkpt>
      <trkpt lat="39.881285" lon="-5.712620">
        <ele>273.0</ele>
        <time>2019-05-20T11:12:05Z</time>
      </trkpt>
      <trkpt lat="39.881126" lon="-5.711222">
        <ele>275.0</ele>
        <time>2019-05-20T11:13:53Z</time>
      </trkpt>
      <trkpt lat="39.881050" lon="-5.709585">
        <ele>279.0</ele>
        <time>2019-05-20T11:15:59Z</time>
      </trkpt>
      <trkpt lat="39.881293" lon="-5.707627">
        <ele>280.0</ele>
        <time>2019-05-20T11:18:32Z</time>
      </trkpt>
      <trkpt lat="39.881510" lon="-5.706380">
        <ele>278.5</ele>
        <time>2019-05-20T11:20:10Z</time>
      </trkpt>
      <trkpt lat="39.881630" lon="-5.705810">
        <ele>280.0</ele>
        <time>2019-05-20T11:20:55Z</time>
      </trkpt>
      <trkpt lat="39.881887" lon="-5.704689">
        <ele>279.0</ele>
        <time>2019-05-20T11:22:25Z</time>
      </trkpt>
      <trkpt lat="39.882303" lon="-5.703151">
        <ele>278.0</ele>
        <time>2019-05-20T11:24:30Z</time>
      </trkpt>
      <trkpt lat="39.882716" lon="-5.701574">
        <ele>275.0</ele>
        <time>2019-05-20T11:26:38Z</time>
      </trkpt>
      <trkpt lat="39.883080" lon="-5.700160">
        <ele>273.0</ele>
        <time>2019-05-20T11:28:33Z</time>
      </trkpt>
      <trkpt lat="39.883625" lon="-5.698055">
        <ele>275.1</ele>
        <time>2019-05-20T11:31:23Z</time>
      </trkpt>
      <trkpt lat="39.884112" lon="-5.696177">
        <ele>274.0</ele>
        <time>2019-05-20T11:33:56Z</time>
      </trkpt>
      <trkpt lat="39.884448" lon="-5.694904">
        <ele>275.0</ele>
        <time>2019-05-20T11:35:39Z</time>
      </trkpt>
      <trkpt lat="39.884833" lon="-5.693366">
        <ele>271.2</ele>
        <time>2019-05-20T11:37:43Z</time>
      </trkpt>
      <trkpt lat="39.885180" lon="-5.692060">
        <ele>270.0</ele>
        <time>2019-05-20T11:39:29Z</time>
      </trkpt>
      <trkpt lat="39.885492" lon="-5.690782">
        <ele>268.0</ele>
        <time>2019-05-20T11:41:12Z</time>
      </trkpt>
      <trkpt lat="39.886049" lon="-5.689169">
        <ele>268.0</ele>
        <time>2019-05-20T11:43:28Z</time>
      </trkpt>
      <trkpt lat="39.886273" lon="-5.688172">
        <ele>267.0</ele>
        <time>2019-05-20T11:44:48Z</time>
      </trkpt>
      <trkpt lat="39.886330" lon="-5.687850">
        <ele>266.9</ele>
        <time>2019-05-20T11:45:13Z</time>
      </trkpt>
      <trkpt lat="39.886316" lon="-5.687379">
        <ele>267.0</ele>
        <time>2019-05-20T11:45:49Z</time>
      </trkpt>
      <trkpt lat="39.886430" lon="-5.686990">
        <ele>267.0</ele>
        <time>2019-05-20T11:46:21Z</time>
      </trkpt>
      <trkpt lat="39.886510" lon="-5.686820">
        <ele>267.0</ele>
        <time>2019-05-20T11:46:37Z</time>
      </trkpt>
      <trkpt lat="39.886660" lon="-5.686550">
        <ele>267.0</ele>
        <time>2019-05-20T11:47:02Z</time>
      </trkpt>
      <trkpt lat="39.887020" lon="-5.686152">
        <ele>268.6</ele>
        <time>2019-05-20T11:47:49Z</time>
      </trkpt>
    </trkseg>
  </trk>
</gpx>
